Time;durP1;ratioP1;P1;durP2;ratioP2;P2;SDS_P1;SDS_P2;PMS_P1;PMS_P2;Temp;Humidity;BMP_temperature;BMP_pressure;BME280_temperature;BME280_humidity;BME280_pressure;Samples;Min_cycle;Max_cycle;Signal;HPM_P1;HPM_P2
2022/10/06 00:00:29;;;;;;;8.52;0.70;;;12.80;99.90;;;;;;5013778;28;20385;-76
2022/10/06 00:02:55;;;;;;;8.20;0.60;;;12.80;99.90;;;;;;5013776;28;20029;-76
2022/10/06 00:05:21;;;;;;;3.90;0.00;;;12.80;99.90;;;;;;5014984;28;20113;-77
2022/10/06 00:07:46;;;;;;;2.90;0.17;;;12.70;99.90;;;;;;5013666;28;20388;-76
2022/10/06 00:10:12;;;;;;;2.97;0.25;;;12.70;99.90;;;;;;5014563;28;20029;-77
2022/10/06 00:12:47;;;;;;;4.95;0.25;;;12.70;99.90;;;;;;5014987;28;20400;-77
2022/10/06 00:15:16;;;;;;;11.98;0.00;;;13.00;99.90;;;;;;5015585;28;20033;-77
2022/10/06 00:17:42;;;;;;;3.97;0.20;;;12.70;99.90;;;;;;5015078;28;20032;-77
2022/10/06 00:20:09;;;;;;;5.50;0.52;;;12.60;99.90;;;;;;5015266;28;20404;-77
2022/10/06 00:22:37;;;;;;;7.30;0.08;;;12.60;99.90;;;;;;5013964;28;20096;-76
2022/10/06 00:25:04;;;;;;;6.95;0.85;;;12.60;99.90;;;;;;5014769;28;20413;-76
2022/10/06 00:27:38;;;;;;;9.07;0.95;;;12.60;99.90;;;;;;5014765;28;20365;-77
2022/10/06 00:30:05;;;;;;;10.20;0.60;;;12.50;99.90;;;;;;5013531;28;20449;-76
2022/10/06 00:32:31;;;;;;;8.48;0.88;;;12.50;99.90;;;;;;5014600;28;20104;-76
2022/10/06 00:35:00;;;;;;;5.70;0.32;;;12.40;99.90;;;;;;5014768;28;20073;-76
2022/10/06 00:37:27;;;;;;;5.35;0.00;;;12.40;99.90;;;;;;5014977;28;20184;-76
2022/10/06 00:39:52;;;;;;;5.25;0.00;;;12.30;99.90;;;;;;5014593;28;20468;-77
2022/10/06 00:42:26;;;;;;;5.82;0.32;;;12.30;99.90;;;;;;5013409;28;20028;-77
2022/10/06 00:44:53;;;;;;;9.15;0.98;;;12.30;99.90;;;;;;5013200;28;20119;-77
2022/10/06 00:47:21;;;;;;;7.22;0.38;;;12.30;99.90;;;;;;5012982;28;20030;-77
2022/10/06 00:49:47;;;;;;;6.88;0.32;;;12.20;99.90;;;;;;5014365;28;20425;-77
2022/10/06 00:52:19;;;;;;;16.70;0.65;;;12.20;99.90;;;;;;5013219;28;20014;-76
2022/10/06 00:54:44;;;;;;;7.20;0.10;;;12.20;99.90;;;;;;5014429;28;20028;-76
2022/10/06 00:57:11;;;;;;;11.02;0.52;;;12.20;99.90;;;;;;5014488;28;20105;-76
2022/10/06 00:59:37;;;;;;;7.93;0.28;;;12.20;99.90;;;;;;5014084;28;20100;-76
2022/10/06 01:02:12;;;;;;;7.45;0.20;;;12.20;99.90;;;;;;5014137;28;20072;-76
2022/10/06 01:04:42;;;;;;;6.05;0.40;;;12.10;99.90;;;;;;5013725;28;20604;-76
2022/10/06 01:07:08;;;;;;;7.28;0.55;;;12.10;99.90;;;;;;5014077;28;20030;-77
2022/10/06 01:09:34;;;;;;;11.60;0.93;;;12.00;99.90;;;;;;5012755;28;20112;-77
2022/10/06 01:12:04;;;;;;;5.90;0.10;;;12.00;99.90;;;;;;5012706;28;20117;-77
2022/10/06 01:14:30;;;;;;;7.90;0.30;;;11.90;99.90;;;;;;5014118;28;20465;-77
2022/10/06 01:17:06;;;;;;;5.15;0.30;;;11.90;99.90;;;;;;5013893;28;20033;-77
2022/10/06 01:19:46;;;;;;;2.92;0.43;;;11.70;99.90;;;;;;5012584;28;20030;-77
2022/10/06 01:22:14;;;;;;;9.57;0.45;;;11.70;99.90;;;;;;5013075;28;20034;-77
2022/10/06 01:24:40;;;;;;;3.50;0.00;;;11.70;99.90;;;;;;5012566;28;20026;-77
2022/10/06 01:27:07;;;;;;;3.30;0.65;;;11.60;99.90;;;;;;5013742;28;20033;-76
2022/10/06 01:29:34;;;;;;;11.95;0.60;;;11.60;99.90;;;;;;5013845;28;20037;-76
2022/10/06 01:32:00;;;;;;;8.07;0.00;;;11.60;99.90;;;;;;5013824;28;20021;-77
2022/10/06 01:34:26;;;;;;;4.15;0.77;;;11.70;99.90;;;;;;5013939;28;20026;-77
2022/10/06 01:36:52;;;;;;;4.15;0.00;;;11.90;99.90;;;;;;5013556;28;20029;-77
2022/10/06 01:39:18;;;;;;;7.47;0.03;;;11.70;99.90;;;;;;5013649;28;20022;-76
2022/10/06 01:41:46;;;;;;;8.95;0.40;;;11.70;99.90;;;;;;5014182;28;20034;-76
2022/10/06 01:44:14;;;;;;;3.95;0.00;;;11.70;99.90;;;;;;5013771;28;20121;-77
2022/10/06 01:46:40;;;;;;;2.88;0.00;;;11.70;99.90;;;;;;5014115;28;20030;-77
2022/10/06 01:49:06;;;;;;;4.57;0.10;;;11.70;99.90;;;;;;5012560;28;20029;-76
2022/10/06 01:51:31;;;;;;;5.65;0.10;;;11.60;99.90;;;;;;5013662;28;20029;-76
2022/10/06 01:53:57;;;;;;;6.55;0.00;;;11.60;99.90;;;;;;5013775;28;20381;-77
2022/10/06 01:56:22;;;;;;;4.97;0.50;;;11.50;99.90;;;;;;5013391;28;20102;-77
2022/10/06 01:58:48;;;;;;;3.97;0.22;;;11.40;99.90;;;;;;5013404;28;20022;-76
2022/10/06 02:01:14;;;;;;;2.38;0.20;;;11.40;99.90;;;;;;5012342;28;20022;-77
2022/10/06 02:03:40;;;;;;;3.05;0.55;;;12.40;99.90;;;;;;5013898;28;20029;-76
2022/10/06 02:06:06;;;;;;;4.63;0.20;;;11.40;99.90;;;;;;5011991;28;20027;-76
2022/10/06 02:08:32;;;;;;;6.57;0.22;;;11.40;99.90;;;;;;5013376;28;20042;-76
2022/10/06 02:11:02;;;;;;;2.15;0.17;;;11.40;99.90;;;;;;5013079;28;20081;-77
2022/10/06 02:13:28;;;;;;;2.05;0.13;;;11.40;99.90;;;;;;5013552;28;20041;-76
2022/10/06 02:15:58;;;;;;;6.35;0.30;;;11.40;99.90;;;;;;5013367;28;20022;-76
2022/10/06 02:18:24;;;;;;;5.60;0.73;;;11.40;99.90;;;;;;5013211;28;20028;-77
2022/10/06 02:20:50;;;;;;;10.45;0.52;;;11.30;99.90;;;;;;5013149;28;20034;-77
2022/10/06 02:23:15;;;;;;;2.65;0.35;;;11.30;99.90;;;;;;5013103;28;20037;-77
2022/10/06 02:25:41;;;;;;;3.10;0.10;;;11.30;99.90;;;;;;5013607;28;20018;-77
2022/10/06 02:28:07;;;;;;;4.50;0.30;;;11.30;99.90;;;;;;5013555;28;20487;-77
2022/10/06 02:30:32;;;;;;;9.57;0.98;;;11.30;99.90;;;;;;5011685;28;20025;-77
2022/10/06 02:32:58;;;;;;;2.95;0.15;;;11.20;99.90;;;;;;5015376;28;20014;-76
2022/10/06 02:35:24;;;;;;;6.97;0.25;;;11.20;99.90;;;;;;5017215;28;20025;-76
2022/10/06 02:37:49;;;;;;;4.43;0.47;;;11.20;99.90;;;;;;5016715;28;20033;-77
2022/10/06 02:40:15;;;;;;;2.42;0.10;;;11.10;99.90;;;;;;5015368;28;20026;-76
2022/10/06 02:42:41;;;;;;;8.68;0.00;;;11.10;99.90;;;;;;5016567;28;20033;-77
2022/10/06 02:45:07;;;;;;;3.75;0.28;;;11.20;99.90;;;;;;5016604;28;20026;-77
2022/10/06 02:47:34;;;;;;;3.75;0.00;;;11.10;99.90;;;;;;5016921;28;20034;-76
2022/10/06 02:50:04;;;;;;;6.38;0.68;;;11.00;99.90;;;;;;5015352;28;20014;-76
2022/10/06 02:52:39;;;;;;;6.97;0.75;;;11.00;99.90;;;;;;5015230;28;20068;-76
2022/10/06 02:55:06;;;;;;;5.63;0.55;;;10.90;99.90;;;;;;5016479;28;20106;-76
2022/10/06 02:57:32;;;;;;;3.33;0.28;;;10.90;99.90;;;;;;5016315;28;20029;-76
2022/10/06 02:59:57;;;;;;;2.95;0.10;;;10.90;99.90;;;;;;5016267;28;20029;-77
2022/10/06 03:02:23;;;;;;;5.20;0.32;;;10.80;99.90;;;;;;5016512;28;20026;-77
2022/10/06 03:04:48;;;;;;;3.42;0.00;;;11.10;99.90;;;;;;5016241;28;20048;-77
2022/10/06 03:07:14;;;;;;;4.93;0.10;;;10.70;99.90;;;;;;5016079;28;20084;-76
2022/10/06 03:09:40;;;;;;;3.08;0.00;;;10.70;99.90;;;;;;5015144;28;20054;-76
2022/10/06 03:12:06;;;;;;;4.20;0.35;;;10.80;99.90;;;;;;5016315;28;20373;-77
2022/10/06 03:14:32;;;;;;;1.25;0.00;;;11.10;99.90;;;;;;5014759;28;20117;-76
2022/10/06 03:16:57;;;;;;;8.10;0.40;;;10.90;99.90;;;;;;5016310;28;20032;-76
2022/10/06 03:19:23;;;;;;;5.93;0.43;;;11.00;99.90;;;;;;5015726;28;20485;-76
2022/10/06 03:21:49;;;;;;;4.90;0.20;;;11.10;99.90;;;;;;5015850;28;20077;-76
2022/10/06 03:24:15;;;;;;;6.15;0.20;;;11.10;99.90;;;;;;5015798;28;20033;-76
2022/10/06 03:26:45;;;;;;;8.93;0.30;;;11.00;99.90;;;;;;5015680;28;20026;-76
2022/10/06 03:29:11;;;;;;;2.10;0.17;;;11.00;99.90;;;;;;5014454;28;20504;-77
2022/10/06 03:31:38;;;;;;;3.17;0.32;;;11.00;99.90;;;;;;5015609;28;20010;-77
2022/10/06 03:34:04;;;;;;;5.00;0.00;;;11.00;99.90;;;;;;5015661;28;20025;-76
2022/10/06 03:36:32;;;;;;;4.10;0.13;;;11.00;99.90;;;;;;5014472;28;20475;-77
2022/10/06 03:38:58;;;;;;;11.32;0.30;;;11.10;99.90;;;;;;5015856;28;20029;-76
2022/10/06 03:41:29;;;;;;;4.95;0.63;;;11.10;99.90;;;;;;5014270;28;20577;-76
2022/10/06 03:43:56;;;;;;;8.63;0.40;;;11.10;99.90;;;;;;5013445;28;20026;-76
2022/10/06 03:46:24;;;;;;;4.68;0.52;;;11.10;99.90;;;;;;5015394;28;20109;-76
2022/10/06 03:48:51;;;;;;;2.23;0.33;;;11.10;99.90;;;;;;5015343;28;20436;-76
2022/10/06 03:51:26;;;;;;;8.50;0.03;;;11.10;99.90;;;;;;5015327;28;20022;-77
2022/10/06 03:53:52;;;;;;;4.15;0.00;;;11.00;99.90;;;;;;5015344;28;20488;-76
2022/10/06 03:56:21;;;;;;;3.35;0.47;;;11.00;99.90;;;;;;5015262;28;20034;-76
2022/10/06 03:58:51;;;;;;;;;;;11.00;99.90;;;;;;5015786;28;20072;-76
2022/10/06 04:01:19;;;;;;;6.15;0.08;;;11.10;99.90;;;;;;5015181;28;19951;-76
2022/10/06 04:03:45;;;;;;;2.20;0.10;;;11.10;99.90;;;;;;5015492;28;20030;-76
2022/10/06 04:06:13;;;;;;;4.65;0.55;;;11.10;99.90;;;;;;5015024;28;20136;-76
2022/10/06 04:08:40;;;;;;;10.55;0.40;;;11.10;99.90;;;;;;5015016;28;20022;-76
2022/10/06 04:11:14;;;;;;;4.03;0.10;;;11.10;99.90;;;;;;5014877;28;20022;-76
2022/10/06 04:13:42;;;;;;;3.33;0.00;;;11.10;99.90;;;;;;5014929;28;20089;-77
2022/10/06 04:16:17;;;;;;;6.32;0.30;;;11.10;99.90;;;;;;5014971;28;20389;-76
2022/10/06 04:18:45;;;;;;;5.63;0.43;;;11.10;99.90;;;;;;5015097;28;20499;-77
2022/10/06 04:21:12;;;;;;;9.13;0.43;;;11.10;99.90;;;;;;5013382;28;20484;-77
2022/10/06 04:23:38;;;;;;;9.02;0.30;;;10.90;99.90;;;;;;5014710;28;20034;-76
2022/10/06 04:26:16;;;;;;;10.98;1.63;;;10.90;99.90;;;;;;5014539;28;20083;-77
2022/10/06 04:28:45;;;;;;;4.93;0.10;;;10.90;99.90;;;;;;5014778;28;20072;-77
2022/10/06 04:31:17;;;;;;;3.88;0.20;;;10.90;99.90;;;;;;5014487;28;20022;-76
2022/10/06 04:33:45;;;;;;;6.28;0.40;;;11.00;99.90;;;;;;5014666;28;20018;-76
2022/10/06 04:36:15;;;;;;;7.55;0.15;;;11.00;99.90;;;;;;5014734;28;20379;-76
2022/10/06 04:38:41;;;;;;;5.80;0.50;;;11.00;99.90;;;;;;5014540;28;20022;-76
2022/10/06 04:41:12;;;;;;;6.75;0.17;;;10.90;99.90;;;;;;5014490;28;20105;-76
2022/10/06 04:43:38;;;;;;;1.30;0.00;;;10.90;99.90;;;;;;5013264;28;20026;-76
2022/10/06 04:46:04;;;;;;;8.05;0.10;;;10.90;99.90;;;;;;5014549;28;20500;-76
2022/10/06 04:48:31;;;;;;;4.30;0.10;;;10.80;99.90;;;;;;5014575;28;20030;-77
2022/10/06 04:51:02;;;;;;;3.25;0.82;;;10.80;99.90;;;;;;5014485;28;20084;-76
2022/10/06 04:53:29;;;;;;;8.50;0.80;;;10.70;99.90;;;;;;5012869;28;20022;-77
2022/10/06 04:56:34;;;;;;;6.20;1.13;;;10.60;99.90;;;;;;5013151;28;20033;-77
2022/10/06 04:59:00;;;;;;;4.25;0.10;;;10.70;99.90;;;;;;4992161;28;20079;-76
2022/10/06 05:01:27;;;;;;;6.53;0.35;;;10.60;99.90;;;;;;5012604;28;20116;-76
2022/10/06 05:03:55;;;;;;;3.17;0.15;;;10.60;99.90;;;;;;5013898;28;20026;-76
2022/10/06 05:06:23;;;;;;;4.32;0.10;;;10.70;99.90;;;;;;5014142;28;20469;-77
2022/10/06 05:08:54;;;;;;;1.63;0.20;;;10.50;99.90;;;;;;5013863;28;20029;-76
2022/10/06 05:11:21;;;;;;;8.88;0.85;;;10.50;99.90;;;;;;5013828;28;20033;-76
2022/10/06 05:13:48;;;;;;;7.60;0.20;;;10.40;99.90;;;;;;5013804;28;20473;-76
2022/10/06 05:16:16;;;;;;;7.00;0.52;;;10.40;99.90;;;;;;5014176;28;20028;-76
2022/10/06 05:18:42;;;;;;;6.50;0.00;;;10.40;99.90;;;;;;5013682;28;20079;-76
2022/10/06 05:21:13;;;;;;;14.93;0.80;;;10.30;99.90;;;;;;5013705;28;20033;-76
2022/10/06 05:23:41;;;;;;;5.72;0.00;;;10.20;99.90;;;;;;5013678;28;20034;-76
2022/10/06 05:26:07;;;;;;;19.00;1.48;;;10.20;99.90;;;;;;5012310;28;20022;-76
2022/10/06 05:28:33;;;;;;;3.22;0.20;;;10.20;99.90;;;;;;5013689;28;20029;-76
2022/10/06 05:31:22;;;;;;;5.38;0.35;;;10.10;99.90;;;;;;5012374;28;20022;-76
2022/10/06 05:33:48;;;;;;;3.50;0.03;;;10.10;99.90;;;;;;5013533;28;20030;-77
2022/10/06 05:36:16;;;;;;;6.07;0.10;;;10.10;99.90;;;;;;5013728;28;20088;-76
2022/10/06 05:38:43;;;;;;;5.07;0.10;;;10.00;99.90;;;;;;5013867;28;20037;-76
2022/10/06 05:41:18;;;;;;;8.70;0.90;;;10.00;99.90;;;;;;5012072;28;20034;-76
2022/10/06 05:43:44;;;;;;;6.53;0.63;;;10.00;99.90;;;;;;5014426;28;20029;-78
2022/10/06 05:46:16;;;;;;;8.90;0.10;;;10.00;99.90;;;;;;5012949;28;20088;-76
2022/10/06 05:48:46;;;;;;;6.22;0.60;;;9.90;99.90;;;;;;5013593;28;20041;-77
2022/10/06 05:51:12;;;;;;;7.18;0.38;;;10.00;99.90;;;;;;5012409;28;20523;-76
2022/10/06 05:53:38;;;;;;;8.65;0.52;;;9.90;99.90;;;;;;5012168;28;20022;-77
2022/10/06 05:56:09;;;;;;;4.57;0.80;;;9.90;99.90;;;;;;5012139;28;20046;-76
2022/10/06 05:58:36;;;;;;;6.53;0.22;;;9.90;99.90;;;;;;5011915;28;20034;-76
2022/10/06 06:01:20;;;;;;;6.78;0.52;;;10.00;99.90;;;;;;5011994;28;20030;-75
2022/10/06 06:03:54;;;;;;;6.30;0.20;;;9.90;99.90;;;;;;5013591;28;20026;-75
2022/10/06 06:06:22;;;;;;;6.05;0.90;;;9.90;99.90;;;;;;5013538;28;20026;-75
2022/10/06 06:08:51;;;;;;;10.35;0.05;;;9.90;99.90;;;;;;5017361;28;20026;-75
2022/10/06 06:11:17;;;;;;;4.03;0.10;;;10.00;99.90;;;;;;5016995;28;20018;-75
2022/10/06 06:13:42;;;;;;;6.47;0.32;;;10.00;99.90;;;;;;5016967;28;20101;-74
2022/10/06 06:16:13;;;;;;;6.00;0.40;;;10.00;99.90;;;;;;5017010;28;20514;-74
2022/10/06 06:18:39;;;;;;;11.20;0.20;;;10.10;99.90;;;;;;5017771;28;20054;-76
2022/10/06 06:21:07;;;;;;;7.03;0.13;;;10.10;99.90;;;;;;5017063;28;20076;-75
2022/10/06 06:23:40;;;;;;;8.48;0.90;;;10.20;99.90;;;;;;5015768;28;20038;-76
2022/10/06 06:26:09;;;;;;;8.90;0.20;;;10.30;99.90;;;;;;5017096;28;20370;-75
2022/10/06 06:28:35;;;;;;;;;;;10.30;99.90;;;;;;5017329;28;20469;-76
2022/10/06 06:31:07;;;;;;;7.10;0.75;;;10.40;99.90;;;;;;5015412;28;19956;-76
2022/10/06 06:33:37;;;;;;;5.55;0.68;;;10.50;99.90;;;;;;5016756;28;20029;-76
2022/10/06 06:36:15;;;;;;;10.95;0.75;;;10.60;99.90;;;;;;5016654;28;20428;-76
2022/10/06 06:38:42;;;;;;;17.42;0.93;;;10.70;99.90;;;;;;5017135;28;20025;-76
2022/10/06 06:41:19;;;;;;;6.90;1.27;;;10.90;99.90;;;;;;5015219;28;20076;-76
2022/10/06 06:43:45;;;;;;;6.25;0.17;;;10.90;99.90;;;;;;5016753;28;20488;-76
2022/10/06 06:46:13;;;;;;;7.35;0.25;;;11.00;99.90;;;;;;5016330;28;20084;-76
2022/10/06 06:48:39;;;;;;;3.58;0.15;;;11.00;99.90;;;;;;5016541;28;20049;-76
2022/10/06 06:51:06;;;;;;;3.13;0.20;;;11.10;99.90;;;;;;5015085;28;20022;-76
2022/10/06 06:53:32;;;;;;;11.35;0.63;;;11.20;99.90;;;;;;5016395;28;20022;-75
2022/10/06 06:55:57;;;;;;;11.32;0.50;;;11.30;99.90;;;;;;5016267;28;20092;-76
2022/10/06 06:58:23;;;;;;;6.50;0.32;;;11.40;99.90;;;;;;5016257;28;20026;-76
2022/10/06 07:00:48;;;;;;;6.03;0.10;;;11.50;99.90;;;;;;5016318;28;20428;-76
2022/10/06 07:03:19;;;;;;;3.10;0.00;;;11.60;99.90;;;;;;5016255;28;20436;-76
2022/10/06 07:05:45;;;;;;;8.57;0.05;;;11.70;99.90;;;;;;5014997;28;20017;-75
2022/10/06 07:08:14;;;;;;;5.22;0.00;;;11.80;99.90;;;;;;5014821;28;20018;-75
2022/10/06 07:10:40;;;;;;;5.80;0.33;;;11.90;99.90;;;;;;5014726;28;20064;-75
2022/10/06 07:13:06;;;;;;;2.92;0.38;;;11.90;99.90;;;;;;5014738;28;20300;-75
2022/10/06 07:26:31;;;;;;;5.07;0.32;;;12.30;99.90;;;;;;5016283;28;20113;-75
2022/10/06 07:28:59;;;;;;;5.82;0.60;;;12.40;99.90;;;;;;5016217;28;20473;-75
2022/10/06 07:31:32;;;;;;;5.35;0.60;;;12.40;99.90;;;;;;5015686;28;20076;-75
2022/10/06 07:34:03;;;;;;;5.55;0.00;;;12.50;99.90;;;;;;5013890;28;20030;-75
2022/10/06 07:36:30;;;;;;;3.97;0.05;;;12.60;99.90;;;;;;5014276;28;20026;-75
2022/10/06 07:38:56;;;;;;;6.80;0.35;;;12.70;99.90;;;;;;5014273;28;20034;-76
2022/10/06 07:41:22;;;;;;;2.97;0.30;;;12.70;99.90;;;;;;5014265;28;20060;-76
2022/10/06 07:43:48;;;;;;;4.82;0.68;;;12.70;99.90;;;;;;5015753;28;20401;-76
2022/10/06 07:46:13;;;;;;;6.97;0.55;;;12.90;99.90;;;;;;5015262;28;20073;-75
2022/10/06 07:48:39;;;;;;;8.52;1.00;;;12.90;99.90;;;;;;5014073;28;20026;-76
2022/10/06 07:51:13;;;;;;;2.63;0.00;;;13.00;99.90;;;;;;5015531;28;20060;-75
2022/10/06 07:53:38;;;;;;;4.18;0.05;;;13.10;99.90;;;;;;5015363;28;20061;-75
2022/10/06 07:56:06;;;;;;;2.85;0.13;;;13.10;99.90;;;;;;5015191;28;20053;-75
2022/10/06 07:58:32;;;;;;;10.18;1.30;;;13.10;99.90;;;;;;5015173;28;20018;-75
2022/10/06 08:01:06;;;;;;;6.38;0.10;;;13.20;99.90;;;;;;5014959;28;20026;-75
2022/10/06 08:03:32;;;;;;;13.43;1.17;;;13.30;99.90;;;;;;5015021;28;20497;-75
2022/10/06 08:06:00;;;;;;;4.82;0.22;;;13.40;99.90;;;;;;5015000;28;20025;-75
2022/10/06 08:08:28;;;;;;;7.03;0.57;;;13.40;99.90;;;;;;5015021;28;20495;-75
2022/10/06 08:10:55;;;;;;;5.63;0.43;;;13.50;99.90;;;;;;5015485;28;20105;-75
2022/10/06 08:13:22;;;;;;;4.45;0.30;;;13.50;99.90;;;;;;5014839;28;20022;-75
2022/10/06 08:15:49;;;;;;;7.88;0.28;;;13.50;99.90;;;;;;5013558;28;20034;-75
2022/10/06 08:18:15;;;;;;;8.77;1.30;;;13.60;99.90;;;;;;5014730;28;20042;-75
2022/10/06 08:20:40;;;;;;;7.57;0.28;;;13.60;99.90;;;;;;5013378;28;20030;-75
2022/10/06 08:23:07;;;;;;;9.07;0.10;;;13.70;99.90;;;;;;5049143;23;20095;-74
2022/10/06 08:25:37;;;;;;;4.85;0.22;;;13.80;99.90;;;;;;5054551;28;20018;-74
2022/10/06 08:28:04;;;;;;;11.40;0.65;;;13.80;99.90;;;;;;5054506;28;20033;-74
2022/10/06 08:30:29;;;;;;;5.72;0.47;;;13.80;99.90;;;;;;5036049;28;20475;-74
2022/10/06 08:32:56;;;;;;;12.57;0.30;;;13.90;99.90;;;;;;5054896;28;20028;-74
2022/10/06 08:35:21;;;;;;;10.02;0.20;;;13.90;99.90;;;;;;5054145;28;20387;-74
2022/10/06 08:37:47;;;;;;;4.88;0.20;;;14.00;99.90;;;;;;5054110;28;20017;-74
2022/10/06 08:40:14;;;;;;;6.70;0.25;;;14.00;99.90;;;;;;5036232;28;20066;-74
2022/10/06 08:42:43;;;;;;;6.43;0.38;;;14.00;99.90;;;;;;5054282;28;20029;-74
2022/10/06 08:45:19;;;;;;;6.40;0.20;;;14.20;99.90;;;;;;5036051;28;20060;-74
2022/10/06 08:48:03;;;;;;;6.40;0.20;;;14.20;99.90;;;;;;5036126;28;20025;-73
2022/10/06 08:50:37;;;;;;;8.10;0.85;;;14.30;99.90;;;;;;5054199;28;20021;-74
2022/10/06 08:53:17;;;;;;;6.25;0.45;;;14.40;99.90;;;;;;5053951;28;20021;-74
2022/10/06 08:55:57;;;;;;;5.60;0.47;;;14.50;99.90;;;;;;5035909;28;20463;-74
2022/10/06 08:58:39;;;;;;;8.65;0.88;;;14.60;99.90;;;;;;5053934;28;20021;-74
2022/10/06 09:01:18;;;;;;;17.00;0.63;;;14.70;99.90;;;;;;5053902;28;20025;-74
2022/10/06 09:03:48;;;;;;;10.38;0.98;;;14.80;99.90;;;;;;5054195;28;20025;-74
2022/10/06 09:06:36;;;;;;;3.30;0.00;;;14.90;99.90;;;;;;5053497;28;20024;-74
2022/10/06 09:09:21;;;;;;;3.40;0.20;;;14.90;99.90;;;;;;5035766;28;20017;-74
2022/10/06 09:12:11;;;;;;;4.95;0.00;;;15.00;99.90;;;;;;5054186;28;20025;-74
2022/10/06 09:15:05;;;;;;;5.03;0.35;;;15.10;99.90;;;;;;5053505;28;20024;-74
2022/10/06 09:17:38;;;;;;;9.48;0.30;;;15.20;99.90;;;;;;5053736;28;20025;-74
2022/10/06 09:20:14;;;;;;;4.40;0.00;;;15.20;99.90;;;;;;5035429;28;20071;-75
2022/10/06 09:22:41;;;;;;;1.48;0.20;;;15.30;99.90;;;;;;5053611;28;20563;-74
2022/10/06 09:25:18;;;;;;;5.22;0.57;;;15.30;99.90;;;;;;5053719;28;20060;-74
2022/10/06 09:27:49;;;;;;;3.88;0.28;;;15.30;99.90;;;;;;5053242;28;20031;-74
2022/10/06 09:30:15;;;;;;;4.13;0.17;;;15.30;99.90;;;;;;5053613;28;20488;-74
2022/10/06 09:32:47;;;;;;;0.95;0.38;;;15.30;99.90;;;;;;5035366;28;20067;-74
2022/10/06 09:35:23;;;;;;;6.55;0.00;;;15.40;99.90;;;;;;5053500;28;20056;-74
2022/10/06 09:37:57;;;;;;;3.25;0.22;;;15.50;99.90;;;;;;5035457;28;20115;-74
2022/10/06 09:40:38;;;;;;;2.53;0.10;;;15.60;99.90;;;;;;5053049;28;20032;-74
2022/10/06 09:43:26;;;;;;;3.63;0.20;;;15.70;99.90;;;;;;5052676;28;20032;-73
2022/10/06 09:45:53;;;;;;;6.00;0.10;;;15.80;99.90;;;;;;5052253;28;20048;-74
2022/10/06 09:48:25;;;;;;;4.15;0.40;;;15.90;99.90;;;;;;5053393;28;20044;-74
2022/10/06 09:51:16;;;;;;;4.82;0.15;;;16.00;99.90;;;;;;5052943;28;20479;-74
2022/10/06 09:54:09;;;;;;;4.10;0.10;;;16.00;99.90;;;;;;5053196;28;20029;-76
2022/10/06 09:56:43;;;;;;;2.42;0.10;;;15.90;99.90;;;;;;5053510;28;20430;-76
2022/10/06 09:59:39;;;;;;;4.75;0.00;;;15.90;99.90;;;;;;5053721;28;20025;-76
2022/10/06 10:02:27;;;;;;;6.40;0.28;;;16.10;99.90;;;;;;5053696;28;20028;-76
2022/10/06 10:04:55;;;;;;;0.40;0.00;;;16.20;99.90;;;;;;5053049;28;20014;-76
2022/10/06 10:07:30;;;;;;;2.10;0.03;;;16.30;99.90;;;;;;5035312;28;20018;-76
2022/10/06 10:10:19;;;;;;;10.27;0.80;;;16.50;99.90;;;;;;5052819;28;20033;-76
2022/10/06 10:13:22;;;;;;;4.97;0.30;;;16.60;99.90;;;;;;5053026;28;20522;-76
2022/10/06 10:15:52;;;;;;;3.03;0.00;;;16.70;99.90;;;;;;5053192;28;20017;-76
2022/10/06 10:18:25;;;;;;;1.75;0.00;;;16.80;99.90;;;;;;5053255;28;20166;-76
2022/10/06 10:21:05;;;;;;;0.70;0.00;;;17.10;99.90;;;;;;5052721;28;20025;-75
2022/10/06 10:23:42;;;;;;;4.20;0.35;;;17.00;99.90;;;;;;5034908;28;20040;-75
2022/10/06 10:26:13;;;;;;;0.77;0.00;;;17.00;99.90;;;;;;5052682;28;20048;-75
2022/10/06 10:29:05;;;;;;;2.40;0.10;;;17.00;99.90;;;;;;5035019;28;20025;-75
2022/10/06 10:31:52;;;;;;;5.32;0.00;;;16.90;99.90;;;;;;5052167;28;20128;-75
2022/10/06 10:34:50;;;;;;;5.00;0.52;;;16.90;99.90;;;;;;5053041;28;20539;-76
2022/10/06 10:37:28;;;;;;;6.03;0.10;;;17.00;99.90;;;;;;5006080;28;20395;-75
2022/10/06 10:40:17;;;;;;;3.83;0.28;;;17.00;99.90;;;;;;5034718;28;20484;-75
2022/10/06 10:42:54;;;;;;;1.08;0.10;;;17.10;99.90;;;;;;5053060;28;20018;-75
2022/10/06 10:45:34;;;;;;;2.42;0.17;;;17.10;99.90;;;;;;5034676;28;20021;-75
2022/10/06 10:48:10;;;;;;;1.30;0.05;;;17.10;99.90;;;;;;5052329;28;20159;-75
2022/10/06 10:50:41;;;;;;;6.80;0.10;;;17.10;99.90;;;;;;5034659;28;20021;-75
2022/10/06 10:53:19;;;;;;;4.28;0.20;;;17.10;99.90;;;;;;5035859;28;20024;-76
2022/10/06 10:55:47;;;;;;;2.97;0.00;;;17.20;99.90;;;;;;5056286;28;20025;-75
2022/10/06 10:58:21;;;;;;;3.25;0.00;;;17.30;99.90;;;;;;5056060;28;20025;-75
2022/10/06 11:00:54;;;;;;;1.42;0.00;;;17.10;99.90;;;;;;5055883;28;20107;-75
2022/10/06 11:03:19;;;;;;;3.22;0.47;;;17.10;99.90;;;;;;5037964;28;20031;-75
2022/10/06 11:06:17;;;;;;;1.45;0.00;;;17.10;99.90;;;;;;5056091;28;20021;-75
2022/10/06 11:08:43;;;;;;;6.15;0.17;;;17.10;99.90;;;;;;5038179;28;20028;-75
2022/10/06 11:11:31;;;;;;;1.27;0.00;;;17.10;99.90;;;;;;5055619;28;20025;-75
2022/10/06 11:14:04;;;;;;;1.27;0.17;;;17.10;99.90;;;;;;5056562;28;20037;-75
2022/10/06 11:16:40;;;;;;;5.60;0.52;;;17.20;99.90;;;;;;5055726;28;20446;-75
2022/10/06 11:19:40;;;;;;;3.35;0.05;;;17.40;99.90;;;;;;5056099;28;20033;-77
2022/10/06 11:22:49;;;;;;;2.55;0.10;;;17.30;99.90;;;;;;5056984;28;20025;-78
2022/10/06 11:25:58;;;;;;;3.38;0.68;;;17.30;99.90;;;;;;5010410;28;20043;-77
2022/10/06 11:28:38;;;;;;;2.78;0.38;;;17.10;99.90;;;;;;5029035;28;20569;-77
2022/10/06 11:31:27;;;;;;;3.45;0.43;;;17.30;99.90;;;;;;5057128;28;20075;-78
2022/10/06 11:33:58;;;;;;;4.28;0.47;;;17.60;99.90;;;;;;5038846;28;20028;-78
2022/10/06 11:36:43;;;;;;;2.78;0.30;;;18.00;99.90;;;;;;5056320;28;20032;-76
2022/10/06 11:39:33;;;;;;;1.48;0.00;;;18.30;99.90;;;;;;5055767;28;20023;-77
2022/10/06 11:42:28;;;;;;;1.73;0.00;;;18.50;99.90;;;;;;5055893;28;20025;-77
2022/10/06 11:45:03;;;;;;;3.67;0.00;;;18.40;97.60;;;;;;5055330;28;20476;-76
2022/10/06 11:47:54;;;;;;;1.40;0.00;;;18.30;99.60;;;;;;5055297;28;20025;-76
2022/10/06 11:50:34;;;;;;;3.35;0.10;;;18.50;98.40;;;;;;5055193;28;20025;-77
2022/10/06 11:53:00;;;;;;;3.65;0.00;;;18.60;99.90;;;;;;5037439;28;20048;-76
2022/10/06 11:55:27;;;;;;;6.82;0.00;;;18.60;97.90;;;;;;5037214;28;20464;-76
2022/10/06 11:58:06;;;;;;;0.70;0.00;;;18.60;99.50;;;;;;5054986;28;20020;-76
2022/10/06 12:00:31;;;;;;;2.70;0.00;;;18.60;99.10;;;;;;5037211;28;20017;-77
2022/10/06 12:03:29;;;;;;;3.15;0.00;;;18.90;99.90;;;;;;5037044;28;20541;-77
2022/10/06 12:05:55;;;;;;;6.82;0.10;;;18.90;97.90;;;;;;5036336;28;20395;-75
2022/10/06 12:08:40;;;;;;;3.03;0.00;;;18.90;98.70;;;;;;5036848;28;20025;-77
2022/10/06 12:11:38;;;;;;;0.95;0.00;;;18.90;98.80;;;;;;5055001;28;20028;-77
2022/10/06 12:14:10;;;;;;;0.75;0.00;;;18.80;99.50;;;;;;5054654;28;20391;-77
2022/10/06 12:16:41;;;;;;;1.35;0.10;;;18.40;96.60;;;;;;5054620;28;20082;-77
2022/10/06 12:19:24;;;;;;;7.88;0.40;;;18.00;96.10;;;;;;5055283;28;20388;-77
2022/10/06 12:22:16;;;;;;;2.67;0.30;;;17.90;98.20;;;;;;5054567;28;20032;-77
2022/10/06 12:25:04;;;;;;;1.55;0.00;;;18.20;99.40;;;;;;5055111;28;20017;-77
2022/10/06 12:27:49;;;;;;;1.98;0.00;;;18.50;99.90;;;;;;5041239;28;20040;-77
2022/10/06 12:30:26;;;;;;;2.70;0.20;;;18.70;96.80;;;;;;5057426;28;20045;-78
2022/10/06 12:32:57;;;;;;;;;;;19.00;96.50;;;;;;5039776;28;20049;-78
2022/10/06 12:35:30;;;;;;;1.67;0.00;;;19.00;95.50;;;;;;5039219;28;19951;-78
2022/10/06 12:38:03;;;;;;;1.45;0.03;;;18.90;96.70;;;;;;5056626;28;20029;-76
2022/10/06 12:40:41;;;;;;;2.05;0.00;;;18.80;96.20;;;;;;5037939;28;20036;-76
2022/10/06 12:43:22;;;;;;;4.75;0.08;;;19.00;98.40;;;;;;5055784;28;20037;-78
2022/10/06 12:46:10;;;;;;;4.32;0.10;;;19.40;98.80;;;;;;5056962;28;20353;-78
2022/10/06 12:48:52;;;;;;;;;;;19.50;95.70;;;;;;5039062;28;20127;-78
2022/10/06 12:51:29;;;;;;;3.45;0.00;;;19.40;95.10;;;;;;5038760;28;19905;-79
2022/10/06 12:54:10;;;;;;;2.88;0.10;;;19.10;95.60;;;;;;5038211;28;20029;-79
2022/10/06 12:56:42;;;;;;;1.80;0.00;;;18.70;97.60;;;;;;5038644;28;20029;-79
2022/10/06 12:59:28;;;;;;;2.75;0.32;;;18.90;97.10;;;;;;5038867;28;20021;-79
2022/10/06 13:01:57;;;;;;;1.17;0.00;;;19.20;95.00;;;;;;5056720;28;20048;-79
2022/10/06 13:04:58;;;;;;;2.13;0.00;;;19.40;95.20;;;;;;5056369;28;20108;-78
2022/10/06 13:07:32;;;;;;;4.35;0.32;;;19.80;94.70;;;;;;5022284;28;20094;-78
2022/10/06 13:10:13;;;;;;;2.92;0.00;;;20.70;93.90;;;;;;5056375;28;20029;-78
2022/10/06 13:12:51;;;;;;;6.03;0.52;;;20.10;94.20;;;;;;5056435;28;20107;-78
2022/10/06 13:15:16;;;;;;;1.70;0.00;;;19.80;93.90;;;;;;5056911;28;20017;-78
2022/10/06 13:18:13;;;;;;;0.98;0.05;;;19.80;92.90;;;;;;5037949;28;20031;-78
2022/10/06 13:20:53;;;;;;;3.97;0.10;;;19.80;93.60;;;;;;5043414;28;20033;-78
2022/10/06 13:23:29;;;;;;;3.47;0.00;;;19.90;93.40;;;;;;5037907;28;20037;-76